createdAt,value
2019-03-13T00:01:19.311Z,6.57
2019-03-13T00:03:48.715Z,6.58
2019-03-13T00:06:18.103Z,6.52
2019-03-13T00:08:47.539Z,6.45
2019-03-13T00:11:17.168Z,6.45
2019-03-13T00:13:46.655Z,6.39
2019-03-13T00:16:16.223Z,6.40
2019-03-13T00:18:45.631Z,6.33
2019-03-13T00:21:14.989Z,6.32
2019-03-13T00:23:44.406Z,6.38
2019-03-13T00:26:13.792Z,6.38
2019-03-13T00:28:43.202Z,6.50
2019-03-13T00:31:12.669Z,6.45
2019-03-13T00:33:42.076Z,6.42
2019-03-13T00:36:11.464Z,6.41
2019-03-13T00:38:40.953Z,6.38
2019-03-13T00:41:10.348Z,6.29
2019-03-13T00:43:39.778Z,6.18
2019-03-13T00:46:09.166Z,6.12
2019-03-13T00:48:38.567Z,6.15
2019-03-13T00:51:08.082Z,6.18
2019-03-13T00:53:37.486Z,6.23
2019-03-13T00:56:06.881Z,6.28
2019-03-13T00:58:36.300Z,6.32
2019-03-13T01:01:10.196Z,6.36
2019-03-13T01:03:44.408Z,6.31
2019-03-13T01:06:19.915Z,6.39
2019-03-13T01:08:49.317Z,6.34
2019-03-13T01:11:18.707Z,6.36
2019-03-13T01:13:48.106Z,6.35
2019-03-13T01:16:17.568Z,6.33
2019-03-13T01:18:46.970Z,6.31
2019-03-13T01:21:16.371Z,6.40
2019-03-13T01:23:45.792Z,6.40
2019-03-13T01:26:15.175Z,6.38
2019-03-13T01:28:44.577Z,6.43
2019-03-13T01:31:27.614Z,6.38
2019-03-13T01:33:58.642Z,6.31
2019-03-13T01:36:28.059Z,6.20
2019-03-13T01:38:57.544Z,6.25
2019-03-13T01:41:26.933Z,6.21
2019-03-13T01:43:56.353Z,6.28
2019-03-13T01:46:25.737Z,6.29
2019-03-13T01:48:55.142Z,6.20
2019-03-13T01:51:24.538Z,6.22
2019-03-13T01:53:53.936Z,6.30
2019-03-13T01:56:23.333Z,6.31
2019-03-13T01:58:52.741Z,6.21
2019-03-13T02:01:22.126Z,6.28
2019-03-13T02:03:51.686Z,6.22
2019-03-13T02:06:21.071Z,6.28
2019-03-13T02:08:50.487Z,6.32
2019-03-13T02:11:19.887Z,6.22
2019-03-13T02:13:49.299Z,6.22
2019-03-13T02:16:18.785Z,6.20
2019-03-13T02:18:48.197Z,6.25
2019-03-13T02:21:17.598Z,6.29
2019-03-13T02:23:47.017Z,6.22
2019-03-13T02:26:16.391Z,6.28
2019-03-13T02:28:45.799Z,6.20
2019-03-13T02:31:15.183Z,6.24
2019-03-13T02:33:44.603Z,6.31
2019-03-13T02:36:14.010Z,6.28
2019-03-13T02:38:43.418Z,6.27
2019-03-13T02:41:12.798Z,6.18
2019-03-13T02:43:42.204Z,6.29
2019-03-13T02:46:11.592Z,6.28
2019-03-13T02:48:41.030Z,6.25
2019-03-13T02:51:10.431Z,6.31
2019-03-13T02:53:39.851Z,6.33
2019-03-13T02:56:09.245Z,6.27
2019-03-13T02:58:38.654Z,6.35
2019-03-13T03:01:21.624Z,6.30
2019-03-13T03:03:52.684Z,6.31
2019-03-13T03:06:22.142Z,6.29
2019-03-13T03:08:51.557Z,6.33
2019-03-13T03:11:20.946Z,6.30
2019-03-13T03:13:50.354Z,6.28
2019-03-13T03:16:19.814Z,6.31
2019-03-13T03:18:49.211Z,6.29
2019-03-13T03:21:18.600Z,6.30
2019-03-13T03:23:48.011Z,6.30
2019-03-13T03:26:17.425Z,6.29
2019-03-13T03:28:46.819Z,6.33
2019-03-13T03:31:16.210Z,6.32
2019-03-13T03:33:57.408Z,6.27
2019-03-13T03:36:26.982Z,6.23
2019-03-13T03:38:56.397Z,6.23
2019-03-13T03:41:26.006Z,6.22
2019-03-13T03:43:55.432Z,6.24
2019-03-13T03:46:24.893Z,6.27
2019-03-13T03:48:54.321Z,6.25
2019-03-13T03:51:23.716Z,6.27
2019-03-13T03:53:53.125Z,6.26
2019-03-13T03:56:22.615Z,6.23
2019-03-13T03:58:52.058Z,6.25
2019-03-13T04:01:21.521Z,6.23
2019-03-13T04:03:50.976Z,6.19
2019-03-13T04:06:20.702Z,6.16
2019-03-13T04:08:50.165Z,6.15
2019-03-13T04:11:19.624Z,6.16
2019-03-13T04:13:49.043Z,6.17
2019-03-13T04:16:18.454Z,6.18
2019-03-13T04:18:47.832Z,6.15
2019-03-13T04:21:17.229Z,6.14
2019-03-13T04:23:46.682Z,6.19
2019-03-13T04:26:16.147Z,6.21
2019-03-13T04:28:45.588Z,6.17
2019-03-13T04:31:14.953Z,6.19
2019-03-13T04:33:44.456Z,6.13
2019-03-13T04:36:13.829Z,6.13
2019-03-13T04:38:43.215Z,6.08
2019-03-13T04:41:12.616Z,6.05
2019-03-13T04:43:42.004Z,6.05
2019-03-13T04:46:11.436Z,6.04
2019-03-13T04:48:40.820Z,6.02
2019-03-13T04:51:10.238Z,6.03
2019-03-13T04:53:39.623Z,6.05
2019-03-13T04:56:09.020Z,6.00
2019-03-13T04:58:38.410Z,5.92
2019-03-13T05:01:07.812Z,5.92
2019-03-13T05:03:37.264Z,5.93
2019-03-13T05:06:09.826Z,5.92
2019-03-13T05:08:45.547Z,5.91
2019-03-13T05:11:12.652Z,5.95
2019-03-13T05:13:42.056Z,5.96
2019-03-13T05:16:11.456Z,5.89
2019-03-13T05:18:40.843Z,5.89
2019-03-13T05:21:10.255Z,5.88
2019-03-13T05:23:39.685Z,5.87
2019-03-13T05:26:09.112Z,5.85
2019-03-13T05:28:38.467Z,5.84
2019-03-13T05:31:07.876Z,5.84
2019-03-13T05:33:37.271Z,5.81
2019-03-13T05:36:06.729Z,5.79
2019-03-13T05:38:36.135Z,5.81
2019-03-13T05:41:05.550Z,5.78
2019-03-13T05:43:35.020Z,5.72
2019-03-13T05:46:04.524Z,5.69
2019-03-13T05:48:34.011Z,5.66
2019-03-13T05:51:03.422Z,5.65
2019-03-13T05:53:32.800Z,5.66
2019-03-13T05:56:02.221Z,5.74
2019-03-13T05:58:31.623Z,5.81
2019-03-13T06:01:01.101Z,5.77
2019-03-13T06:03:30.484Z,5.78
2019-03-13T06:05:59.890Z,5.81
2019-03-13T06:08:29.273Z,5.80
2019-03-13T06:10:58.673Z,5.71
2019-03-13T06:13:28.061Z,5.79
2019-03-13T06:15:57.572Z,5.78
2019-03-13T06:18:26.955Z,5.75
2019-03-13T06:20:56.429Z,5.78
2019-03-13T06:23:25.805Z,5.82
2019-03-13T06:25:55.216Z,5.82
2019-03-13T06:28:24.605Z,5.83
2019-03-13T06:30:54.017Z,5.87
2019-03-13T06:33:23.407Z,5.87
2019-03-13T06:35:52.820Z,5.96
2019-03-13T06:38:22.214Z,5.96
2019-03-13T06:40:51.700Z,5.95
2019-03-13T06:43:21.107Z,5.97
2019-03-13T06:45:50.526Z,5.96
2019-03-13T06:48:19.923Z,5.90
2019-03-13T06:50:49.331Z,5.88
2019-03-13T06:53:18.739Z,5.96
2019-03-13T06:55:48.144Z,6.01
2019-03-13T06:58:19.169Z,6.02
2019-03-13T07:00:58.789Z,6.07
2019-03-13T07:03:46.192Z,6.08
2019-03-13T07:06:20.009Z,6.04
2019-03-13T07:09:09.081Z,6.02
2019-03-13T07:11:42.929Z,6.01
2019-03-13T07:14:16.838Z,5.97
2019-03-13T07:16:53.478Z,5.95
2019-03-13T07:19:27.196Z,6.01
2019-03-13T07:21:58.244Z,6.05
2019-03-13T07:24:38.066Z,6.01
2019-03-13T07:27:25.713Z,5.99
2019-03-13T07:30:05.460Z,6.00
2019-03-13T07:32:36.508Z,5.90
2019-03-13T07:35:20.363Z,5.95
2019-03-13T07:38:03.382Z,5.94
2019-03-13T07:40:36.946Z,5.92
2019-03-13T07:43:24.408Z,5.95
2019-03-13T07:46:07.477Z,6.00
2019-03-13T07:48:38.517Z,6.07
2019-03-13T07:51:18.538Z,6.05
2019-03-13T07:53:52.475Z,5.99
2019-03-13T07:56:29.460Z,6.00
2019-03-13T07:59:09.751Z,5.99
2019-03-13T08:01:43.807Z,5.99
2019-03-13T08:04:17.718Z,5.98
2019-03-13T08:06:48.772Z,5.93
2019-03-13T08:09:34.945Z,6.02
2019-03-13T08:12:21.069Z,6.48
2019-03-13T08:14:52.097Z,8.06
2019-03-13T08:17:23.141Z,8.68
2019-03-13T08:19:56.707Z,8.53
2019-03-13T08:22:30.644Z,7.99
2019-03-13T08:25:07.798Z,7.89
2019-03-13T08:27:40.911Z,7.62
2019-03-13T08:30:30.031Z,7.32
2019-03-13T08:33:06.536Z,6.98
2019-03-13T08:35:53.721Z,6.81
2019-03-13T08:38:24.765Z,6.82
2019-03-13T08:41:12.359Z,6.83
2019-03-13T08:44:01.251Z,6.78
2019-03-13T08:46:35.107Z,6.66
2019-03-13T08:49:06.248Z,6.56
2019-03-13T08:51:37.289Z,6.47
2019-03-13T08:54:10.981Z,6.41
2019-03-13T08:56:44.711Z,6.43
2019-03-13T08:59:23.549Z,6.58
2019-03-13T09:01:57.219Z,6.64
2019-03-13T09:04:28.308Z,6.65
2019-03-13T09:06:59.345Z,6.68
2019-03-13T09:09:33.155Z,6.72
2019-03-13T09:12:13.455Z,6.69
2019-03-13T09:14:50.415Z,6.90
2019-03-13T09:17:27.343Z,6.82
2019-03-13T09:20:04.284Z,6.85
2019-03-13T09:22:50.080Z,6.86
2019-03-13T09:25:33.267Z,6.76
2019-03-13T09:28:20.406Z,6.74
2019-03-13T09:30:57.196Z,6.67
2019-03-13T09:33:28.248Z,6.59
2019-03-13T09:35:59.284Z,6.60
2019-03-13T09:38:39.423Z,6.62
2019-03-13T09:41:13.400Z,6.67
2019-03-13T09:43:59.970Z,6.66
2019-03-13T09:46:34.150Z,6.61
2019-03-13T09:49:20.221Z,6.57
2019-03-13T09:51:51.256Z,6.61
2019-03-13T09:54:31.261Z,6.47
2019-03-13T09:57:14.137Z,6.43
2019-03-13T09:59:47.576Z,6.60
2019-03-13T10:02:36.524Z,7.47
2019-03-13T10:05:12.292Z,7.59
2019-03-13T10:07:43.354Z,7.45
2019-03-13T10:10:17.464Z,7.31
2019-03-13T10:12:50.963Z,7.10
2019-03-13T10:15:24.670Z,7.01
2019-03-13T10:17:55.707Z,6.99
2019-03-13T10:20:38.987Z,7.00
2019-03-13T10:23:25.120Z,7.16
2019-03-13T10:26:12.670Z,7.04
2019-03-13T10:28:46.420Z,6.98
2019-03-13T10:31:17.465Z,7.00
2019-03-13T10:33:48.525Z,7.14
2019-03-13T10:36:34.577Z,7.81
2019-03-13T10:39:22.719Z,8.38
2019-03-13T10:42:02.245Z,8.72
2019-03-13T10:44:39.003Z,9.02
2019-03-13T10:47:12.933Z,9.40
2019-03-13T10:49:43.993Z,9.28
2019-03-13T10:52:15.018Z,8.83
2019-03-13T10:54:46.069Z,8.38
2019-03-13T10:57:17.101Z,8.33
2019-03-13T10:59:48.155Z,8.35
2019-03-13T11:02:37.682Z,8.23
2019-03-13T11:05:12.672Z,8.12
2019-03-13T11:07:46.700Z,8.02
2019-03-13T11:10:34.214Z,8.23
2019-03-13T11:13:10.843Z,8.79
2019-03-13T11:15:41.903Z,9.75
2019-03-13T11:18:12.929Z,11.67
2019-03-13T11:20:44.051Z,12.22
2019-03-13T11:23:15.094Z,11.12
2019-03-13T11:25:51.799Z,10.05
2019-03-13T11:28:25.704Z,9.30
2019-03-13T11:31:12.888Z,9.08
2019-03-13T11:33:43.928Z,8.90
2019-03-13T11:36:24.133Z,8.23
2019-03-13T11:39:01.190Z,7.74
2019-03-13T11:41:48.137Z,7.68
2019-03-13T11:44:19.193Z,7.66
2019-03-13T11:46:52.932Z,7.74
2019-03-13T11:49:26.472Z,7.82
2019-03-13T11:52:12.744Z,7.83
2019-03-13T11:54:55.773Z,7.84
2019-03-13T11:57:38.783Z,7.79
2019-03-13T12:00:15.882Z,7.91
2019-03-13T12:02:59.169Z,8.14
2019-03-13T12:05:30.213Z,8.33
2019-03-13T12:08:19.480Z,8.28
2019-03-13T12:10:50.555Z,8.47
2019-03-13T12:13:30.528Z,8.58
2019-03-13T12:16:01.585Z,8.46
2019-03-13T12:18:35.603Z,8.19
2019-03-13T12:21:25.181Z,8.09
2019-03-13T12:24:07.968Z,7.83
2019-03-13T12:26:55.228Z,7.75
2019-03-13T12:29:31.693Z,7.67
2019-03-13T12:32:17.874Z,7.70
2019-03-13T12:34:48.907Z,7.70
2019-03-13T12:37:32.050Z,7.64
2019-03-13T12:40:14.718Z,7.69
2019-03-13T12:42:51.795Z,7.89
2019-03-13T12:45:28.872Z,8.02
2019-03-13T12:48:15.862Z,8.28
2019-03-13T12:50:44.363Z,8.55
2019-03-13T12:53:15.397Z,8.66
2019-03-13T12:55:46.445Z,8.61
2019-03-13T12:58:33.705Z,8.57
2019-03-13T13:01:07.627Z,8.34
2019-03-13T13:03:41.620Z,8.08
2019-03-13T13:06:27.945Z,7.98
2019-03-13T13:09:01.471Z,7.85
2019-03-13T13:11:38.442Z,7.62
2019-03-13T13:14:12.264Z,7.50
2019-03-13T13:17:01.999Z,7.44
2019-03-13T13:19:31.379Z,7.37
2019-03-13T13:22:00.868Z,7.43
2019-03-13T13:24:30.280Z,7.59
2019-03-13T13:26:59.689Z,7.61
2019-03-13T13:29:29.069Z,7.82
2019-03-13T13:31:58.478Z,8.20
2019-03-13T13:34:27.896Z,8.40
2019-03-13T13:36:57.307Z,8.50
2019-03-13T13:39:26.720Z,8.64
2019-03-13T13:41:56.135Z,8.49
2019-03-13T13:44:25.657Z,8.35
2019-03-13T13:46:55.066Z,8.04
2019-03-13T13:49:24.479Z,7.89
2019-03-13T13:51:53.889Z,7.79
2019-03-13T13:54:23.317Z,7.84
2019-03-13T13:56:52.737Z,7.86
2019-03-13T13:59:22.136Z,7.82
2019-03-13T14:01:51.544Z,7.79
2019-03-13T14:04:20.936Z,7.81
2019-03-13T14:06:50.344Z,7.85
2019-03-13T14:09:19.756Z,7.86
2019-03-13T14:11:49.164Z,7.86
2019-03-13T14:14:18.644Z,7.90
2019-03-13T14:16:48.069Z,7.94
2019-03-13T14:19:17.494Z,7.93
2019-03-13T14:21:46.930Z,7.95
2019-03-13T14:24:17.535Z,8.11
2019-03-13T14:26:47.032Z,8.32
2019-03-13T14:29:16.412Z,8.59
2019-03-13T14:31:45.841Z,8.87
2019-03-13T14:34:15.234Z,9.21
2019-03-13T14:36:44.672Z,9.35
2019-03-13T14:39:14.070Z,9.26
2019-03-13T14:41:43.555Z,9.17
2019-03-13T14:44:13.028Z,9.10
2019-03-13T14:46:42.512Z,9.11
2019-03-13T14:49:11.931Z,8.98
2019-03-13T14:51:41.392Z,9.00
2019-03-13T14:54:10.803Z,8.96
2019-03-13T14:56:40.187Z,9.01
2019-03-13T14:59:09.621Z,9.05
2019-03-13T15:01:39.027Z,8.95
2019-03-13T15:04:08.505Z,8.88
2019-03-13T15:06:38.918Z,8.69
2019-03-13T15:09:08.430Z,8.58
2019-03-13T15:11:37.817Z,8.65
2019-03-13T15:14:07.236Z,8.63
2019-03-13T15:16:36.635Z,8.58
2019-03-13T15:19:07.010Z,8.52
2019-03-13T15:21:36.514Z,8.41
2019-03-13T15:24:05.995Z,8.28
2019-03-13T15:26:35.414Z,8.22
2019-03-13T15:29:04.819Z,8.24
2019-03-13T15:31:34.210Z,8.15
2019-03-13T15:34:03.626Z,8.02
2019-03-13T15:36:33.179Z,7.98
2019-03-13T15:39:02.844Z,7.99
2019-03-13T15:41:32.220Z,7.88
2019-03-13T15:44:01.647Z,7.85
2019-03-13T15:46:32.744Z,7.84
2019-03-13T15:49:02.328Z,7.66
2019-03-13T15:51:31.735Z,7.76
2019-03-13T15:54:01.150Z,7.64
2019-03-13T15:56:30.566Z,7.55
2019-03-13T15:59:00.021Z,7.40
2019-03-13T16:01:29.407Z,7.24
2019-03-13T16:03:58.914Z,7.26
2019-03-13T16:06:28.312Z,7.29
2019-03-13T16:08:57.786Z,7.16
2019-03-13T16:11:27.181Z,7.01
2019-03-13T16:13:56.622Z,6.87
2019-03-13T16:16:26.012Z,6.63
2019-03-13T16:18:55.426Z,6.44
2019-03-13T16:21:24.819Z,6.02
2019-03-13T16:23:54.212Z,5.76
2019-03-13T16:26:23.647Z,5.59
2019-03-13T16:28:53.046Z,5.61
2019-03-13T16:31:22.425Z,5.59
2019-03-13T16:33:51.940Z,5.53
2019-03-13T16:36:21.360Z,5.51
2019-03-13T16:38:50.818Z,5.65
2019-03-13T16:41:20.204Z,5.74
2019-03-13T16:43:49.615Z,5.82
2019-03-13T16:46:19.027Z,5.79
2019-03-13T16:48:48.454Z,6.02
2019-03-13T16:51:17.876Z,6.03
2019-03-13T16:53:47.361Z,6.12
2019-03-13T16:56:16.843Z,6.21
2019-03-13T16:58:46.252Z,6.24
2019-03-13T17:01:15.699Z,6.30
2019-03-13T17:03:45.151Z,6.37
2019-03-13T17:06:14.570Z,6.51
2019-03-13T17:08:43.967Z,6.55
2019-03-13T17:11:13.365Z,6.56
2019-03-13T17:13:42.763Z,6.54
2019-03-13T17:16:12.168Z,6.54
2019-03-13T17:18:41.570Z,6.53
2019-03-13T17:21:10.979Z,6.56
2019-03-13T17:23:40.485Z,6.59
2019-03-13T17:26:09.959Z,6.64
2019-03-13T17:28:39.329Z,6.66
2019-03-13T17:31:08.752Z,6.65
2019-03-13T17:33:38.138Z,6.65
2019-03-13T17:36:07.555Z,6.66
2019-03-13T17:38:36.964Z,6.66
2019-03-13T17:41:06.361Z,6.61
2019-03-13T17:43:39.543Z,6.57
2019-03-13T17:46:07.409Z,6.51
2019-03-13T17:48:36.789Z,6.37
2019-03-13T17:51:06.200Z,6.21
2019-03-13T17:53:35.602Z,6.16
2019-03-13T17:56:05.063Z,6.12
2019-03-13T17:58:34.446Z,6.12
2019-03-13T18:01:05.538Z,5.91
2019-03-13T18:03:35.023Z,5.99
2019-03-13T18:06:04.748Z,6.11
2019-03-13T18:08:34.147Z,6.12
2019-03-13T18:11:03.660Z,6.11
2019-03-13T18:13:33.052Z,6.29
2019-03-13T18:16:02.485Z,6.36
2019-03-13T18:18:31.892Z,6.39
2019-03-13T18:21:01.315Z,6.44
2019-03-13T18:23:30.729Z,6.39
2019-03-13T18:26:00.128Z,6.57
2019-03-13T18:28:29.542Z,6.64
2019-03-13T18:31:01.806Z,6.68
2019-03-13T18:33:30.100Z,6.65
2019-03-13T18:35:59.541Z,6.74
2019-03-13T18:38:28.924Z,6.70
2019-03-13T18:40:58.348Z,6.66
2019-03-13T18:43:27.744Z,6.74
2019-03-13T18:45:57.222Z,6.78
2019-03-13T18:48:26.718Z,6.81
2019-03-13T18:50:56.148Z,6.75
2019-03-13T18:53:25.537Z,6.85
2019-03-13T18:55:55.031Z,6.88
2019-03-13T18:58:24.439Z,6.91
2019-03-13T19:00:53.946Z,6.92
2019-03-13T19:03:23.461Z,6.91
2019-03-13T19:05:54.715Z,6.93
2019-03-13T19:08:26.916Z,6.95
2019-03-13T19:10:55.827Z,6.98
2019-03-13T19:13:25.232Z,6.97
2019-03-13T19:15:54.991Z,6.97
2019-03-13T19:18:24.869Z,6.97
2019-03-13T19:20:54.404Z,6.95
2019-03-13T19:23:23.767Z,6.95
2019-03-13T19:25:53.233Z,6.90
2019-03-13T19:28:22.605Z,6.83
2019-03-13T19:30:52.015Z,6.65
2019-03-13T19:33:21.430Z,6.56
2019-03-13T19:35:50.827Z,6.49
2019-03-13T19:38:20.211Z,6.37
2019-03-13T19:40:49.698Z,6.26
2019-03-13T19:43:19.089Z,6.15
2019-03-13T19:45:48.903Z,6.11
2019-03-13T19:48:18.310Z,6.10
2019-03-13T19:50:47.798Z,6.03
2019-03-13T19:53:17.185Z,6.05
2019-03-13T19:55:46.616Z,6.08
2019-03-13T19:58:17.347Z,5.94
2019-03-13T20:00:46.785Z,5.85
2019-03-13T20:03:17.513Z,5.72
2019-03-13T20:05:46.916Z,5.60
2019-03-13T20:08:16.316Z,5.52
2019-03-13T20:10:45.897Z,5.45
2019-03-13T20:13:15.286Z,5.47
2019-03-13T20:15:45.023Z,5.46
2019-03-13T20:18:14.447Z,5.44
2019-03-13T20:20:43.935Z,5.40
2019-03-13T20:23:15.541Z,5.55
2019-03-13T20:25:44.958Z,5.62
2019-03-13T20:28:15.044Z,5.70
2019-03-13T20:30:44.534Z,5.82
2019-03-13T20:33:14.006Z,5.78
2019-03-13T20:35:43.430Z,5.81
2019-03-13T20:38:12.824Z,5.86
2019-03-13T20:40:43.352Z,5.87
2019-03-13T20:43:12.827Z,5.83
2019-03-13T20:45:42.235Z,5.89
2019-03-13T20:48:11.716Z,5.90
2019-03-13T20:50:41.124Z,5.91
2019-03-13T20:53:10.518Z,5.90
2019-03-13T20:55:40.051Z,5.79
2019-03-13T20:58:09.463Z,5.76
2019-03-13T21:00:38.859Z,5.67
2019-03-13T21:03:08.335Z,5.65
2019-03-13T21:05:37.763Z,5.74
2019-03-13T21:08:07.176Z,5.65
2019-03-13T21:10:36.639Z,5.59
2019-03-13T21:13:09.299Z,5.53
2019-03-13T21:15:38.688Z,5.72
2019-03-13T21:18:08.114Z,5.70
2019-03-13T21:20:37.505Z,5.79
2019-03-13T21:23:06.928Z,5.68
2019-03-13T21:25:36.395Z,5.69
2019-03-13T21:28:06.208Z,5.72
2019-03-13T21:30:35.655Z,5.73
2019-03-13T21:33:05.186Z,5.87
2019-03-13T21:35:34.595Z,5.89
2019-03-13T21:38:04.008Z,5.91
2019-03-13T21:40:33.431Z,5.95
2019-03-13T21:43:02.923Z,5.96
2019-03-13T21:45:41.026Z,5.89
2019-03-13T21:48:03.532Z,5.99
2019-03-13T21:50:32.955Z,5.96
2019-03-13T21:53:02.362Z,6.02
2019-03-13T21:55:31.768Z,5.97
2019-03-13T21:58:01.191Z,6.07
2019-03-13T22:00:30.665Z,5.94
2019-03-13T22:03:00.090Z,6.02
2019-03-13T22:05:29.479Z,5.96
2019-03-13T22:07:58.972Z,5.82
2019-03-13T22:10:29.754Z,5.94
2019-03-13T22:12:59.235Z,5.92
2019-03-13T22:15:28.657Z,5.90
2019-03-13T22:17:58.039Z,5.92
2019-03-13T22:20:27.442Z,6.02
2019-03-13T22:22:56.938Z,6.11
2019-03-13T22:25:26.429Z,6.15
2019-03-13T22:27:55.929Z,6.08
2019-03-13T22:30:28.757Z,6.07
2019-03-13T22:32:57.277Z,6.11
2019-03-13T22:35:26.670Z,5.99
2019-03-13T22:37:56.066Z,5.93
2019-03-13T22:40:25.461Z,5.87
2019-03-13T22:42:54.876Z,5.67
2019-03-13T22:45:24.332Z,5.64
2019-03-13T22:47:53.754Z,5.53
2019-03-13T22:50:24.288Z,5.41
2019-03-13T22:52:53.707Z,5.43
2019-03-13T22:55:23.133Z,5.54
2019-03-13T22:57:52.561Z,5.67
2019-03-13T23:00:32.252Z,5.65
2019-03-13T23:03:01.707Z,5.55
2019-03-13T23:05:31.272Z,5.67
2019-03-13T23:08:00.664Z,5.66
2019-03-13T23:10:34.249Z,5.70
2019-03-13T23:13:03.682Z,5.61
2019-03-13T23:15:33.239Z,5.60
2019-03-13T23:18:02.624Z,5.49
2019-03-13T23:20:32.094Z,5.41
2019-03-13T23:23:01.517Z,5.65
2019-03-13T23:25:30.899Z,5.69
2019-03-13T23:28:00.309Z,5.81
2019-03-13T23:30:29.704Z,5.88
2019-03-13T23:32:59.162Z,5.90
2019-03-13T23:35:28.551Z,5.92
2019-03-13T23:37:57.935Z,5.93
2019-03-13T23:40:27.352Z,5.94
2019-03-13T23:42:56.785Z,5.96
2019-03-13T23:45:26.209Z,6.10
2019-03-13T23:47:56.649Z,6.07
2019-03-13T23:50:26.137Z,6.06
2019-03-13T23:52:55.524Z,6.11
2019-03-13T23:55:24.993Z,6.24
2019-03-13T23:57:54.511Z,6.20
